createdAt,value
2023-04-16T00:00:06.586Z,11.00
2023-04-16T00:02:34.646Z,9.80
2023-04-16T00:05:02.700Z,10.18
2023-04-16T00:07:32.085Z,10.20
2023-04-16T00:10:00.023Z,10.05
2023-04-16T00:12:27.938Z,10.23
2023-04-16T00:14:55.847Z,10.15
2023-04-16T00:17:23.844Z,10.73
2023-04-16T00:19:51.998Z,10.32
2023-04-16T00:22:19.938Z,10.45
2023-04-16T00:24:49.272Z,9.98
2023-04-16T00:27:17.187Z,11.20
2023-04-16T00:29:45.100Z,11.32
2023-04-16T00:32:13.016Z,10.40
2023-04-16T00:34:40.920Z,10.60
2023-04-16T00:37:08.805Z,11.25
2023-04-16T00:39:36.756Z,10.68
2023-04-16T00:42:06.067Z,11.65
2023-04-16T00:44:36.046Z,11.43
2023-04-16T00:47:04.307Z,11.13
2023-04-16T00:49:32.492Z,11.77
2023-04-16T00:52:02.499Z,11.80
2023-04-16T00:54:31.072Z,12.45
2023-04-16T00:57:00.206Z,11.30
2023-04-16T00:59:30.442Z,11.18
2023-04-16T01:01:58.492Z,12.52
2023-04-16T01:04:26.674Z,12.15
2023-04-16T01:06:54.909Z,11.57
2023-04-16T01:09:22.858Z,10.98
2023-04-16T01:11:50.781Z,12.15
2023-04-16T01:14:18.714Z,11.60
2023-04-16T01:16:48.111Z,11.90
2023-04-16T01:19:16.138Z,11.70
2023-04-16T01:21:45.639Z,12.15
2023-04-16T01:24:13.613Z,12.30
2023-04-16T01:26:41.490Z,11.68
2023-04-16T01:29:09.642Z,11.40
2023-04-16T01:31:37.859Z,11.32
2023-04-16T01:34:06.151Z,10.60
2023-04-16T01:36:34.024Z,10.80
2023-04-16T01:39:03.484Z,10.40
2023-04-16T01:41:32.284Z,10.05
2023-04-16T01:44:00.183Z,10.48
2023-04-16T01:46:30.018Z,8.98
2023-04-16T01:48:58.252Z,8.80
2023-04-16T01:51:27.328Z,9.65
2023-04-16T01:53:56.100Z,9.23
2023-04-16T01:56:25.467Z,9.60
2023-04-16T01:58:54.133Z,9.80
2023-04-16T02:01:22.190Z,9.13
2023-04-16T02:03:50.353Z,8.40
2023-04-16T02:06:18.319Z,8.57
2023-04-16T02:08:46.261Z,8.52
2023-04-16T02:11:14.174Z,8.90
2023-04-16T02:13:43.466Z,10.13
2023-04-16T02:16:11.480Z,9.13
2023-04-16T02:18:39.520Z,8.43
2023-04-16T02:21:07.917Z,8.43
2023-04-16T02:23:36.017Z,8.93
2023-04-16T02:26:04.635Z,9.05
2023-04-16T02:28:32.609Z,8.90
2023-04-16T02:31:01.978Z,8.40
2023-04-16T02:33:30.244Z,8.00
2023-04-16T02:35:58.139Z,9.05
2023-04-16T02:38:26.153Z,9.10
2023-04-16T02:40:54.099Z,8.23
2023-04-16T02:43:21.968Z,8.40
2023-04-16T02:45:49.953Z,9.07
2023-04-16T02:48:19.237Z,9.95
2023-04-16T02:50:47.160Z,8.70
2023-04-16T02:53:15.045Z,9.15
2023-04-16T02:55:44.100Z,9.02
2023-04-16T02:58:11.977Z,7.88
2023-04-16T03:00:39.897Z,8.10
2023-04-16T03:03:07.951Z,9.48
2023-04-16T03:05:39.712Z,8.82
2023-04-16T03:08:08.532Z,8.48
2023-04-16T03:10:36.638Z,7.78
2023-04-16T03:13:05.145Z,8.35
2023-04-16T03:15:33.123Z,9.23
2023-04-16T03:18:01.429Z,8.98
2023-04-16T03:20:29.433Z,8.45
2023-04-16T03:22:58.795Z,9.18
2023-04-16T03:25:26.732Z,9.98
2023-04-16T03:27:54.682Z,8.48
2023-04-16T03:30:22.800Z,8.52
2023-04-16T03:32:50.846Z,9.05
2023-04-16T03:35:18.877Z,9.30
2023-04-16T03:37:46.774Z,8.88
2023-04-16T03:40:16.425Z,9.18
2023-04-16T03:42:44.361Z,8.57
2023-04-16T03:45:12.587Z,9.43
2023-04-16T03:47:40.466Z,9.55
2023-04-16T03:50:08.960Z,9.85
2023-04-16T03:52:36.858Z,9.18
2023-04-16T03:55:05.264Z,9.95
2023-04-16T03:57:34.513Z,9.20
2023-04-16T04:00:02.433Z,10.07
2023-04-16T04:02:30.511Z,10.05
2023-04-16T04:04:58.524Z,10.27
2023-04-16T04:07:26.426Z,8.93
2023-04-16T04:09:54.369Z,10.45
2023-04-16T04:12:22.254Z,10.68
2023-04-16T04:14:51.591Z,10.10
2023-04-16T04:17:19.548Z,11.48
2023-04-16T04:20:00.552Z,10.52
2023-04-16T04:22:29.496Z,11.10
2023-04-16T04:24:57.426Z,11.02
2023-04-16T04:27:25.322Z,10.85
2023-04-16T04:29:54.765Z,10.98
2023-04-16T04:32:22.763Z,12.15
2023-04-16T04:34:50.769Z,10.98
2023-04-16T04:37:18.715Z,11.07
2023-04-16T04:39:46.674Z,12.32
2023-04-16T04:42:14.721Z,11.07
2023-04-16T04:44:42.663Z,10.65
2023-04-16T04:47:12.037Z,11.00
2023-04-16T04:49:40.155Z,11.52
2023-04-16T04:52:08.164Z,11.05
2023-04-16T04:54:36.165Z,10.07
2023-04-16T04:57:04.116Z,10.63
2023-04-16T04:59:32.089Z,11.10
2023-04-16T05:02:00.549Z,11.30
2023-04-16T05:04:29.893Z,10.85
2023-04-16T05:06:57.760Z,11.52
2023-04-16T05:09:25.917Z,11.38
2023-04-16T05:11:54.075Z,11.10
2023-04-16T05:14:21.989Z,10.90
2023-04-16T05:16:49.943Z,11.32
2023-04-16T05:19:18.172Z,11.45
2023-04-16T05:21:47.395Z,11.23
2023-04-16T05:24:15.358Z,11.85
2023-04-16T05:26:43.858Z,11.80
2023-04-16T05:29:13.404Z,11.57
2023-04-16T05:31:41.327Z,10.98
2023-04-16T05:34:09.288Z,10.68
2023-04-16T05:36:37.350Z,11.27
2023-04-16T05:39:08.537Z,11.13
2023-04-16T05:41:37.106Z,11.07
2023-04-16T05:44:05.246Z,11.65
2023-04-16T05:46:33.213Z,11.80
2023-04-16T05:49:01.413Z,11.63
2023-04-16T05:51:29.411Z,12.02
2023-04-16T05:53:57.410Z,11.10
2023-04-16T05:56:27.179Z,11.85
2023-04-16T05:58:55.109Z,12.63
2023-04-16T06:01:23.622Z,12.50
2023-04-16T06:03:51.748Z,12.00
2023-04-16T06:06:19.703Z,12.70
2023-04-16T06:08:47.649Z,13.07
2023-04-16T06:11:15.594Z,14.23
2023-04-16T06:13:46.030Z,12.55
2023-04-16T06:16:14.097Z,16.27
2023-04-16T06:18:42.409Z,16.48
2023-04-16T06:21:10.383Z,12.75
2023-04-16T06:23:38.277Z,11.95
2023-04-16T06:26:06.566Z,11.00
2023-04-16T06:28:34.560Z,11.20
2023-04-16T06:31:03.944Z,12.50
2023-04-16T06:33:31.853Z,11.95
2023-04-16T06:35:59.772Z,12.25
2023-04-16T06:38:27.685Z,11.68
2023-04-16T06:40:56.581Z,11.88
2023-04-16T06:43:24.528Z,13.43
2023-04-16T06:45:52.467Z,13.20
2023-04-16T06:48:21.808Z,12.50
2023-04-16T06:50:49.787Z,13.57
2023-04-16T06:53:17.877Z,14.45
2023-04-16T06:55:45.722Z,13.73
2023-04-16T06:58:13.632Z,14.73
2023-04-16T07:00:41.502Z,14.35
2023-04-16T07:03:09.602Z,13.90
2023-04-16T07:05:38.997Z,13.93
2023-04-16T07:08:07.304Z,15.30
2023-04-16T07:10:35.410Z,16.42
2023-04-16T07:13:03.426Z,15.70
2023-04-16T07:15:31.327Z,15.18
2023-04-16T07:17:59.237Z,17.38
2023-04-16T07:20:27.217Z,16.35
2023-04-16T07:22:56.561Z,16.42
2023-04-16T07:25:24.573Z,15.85
2023-04-16T07:27:52.766Z,15.95
2023-04-16T07:30:20.786Z,16.77
2023-04-16T07:32:48.749Z,17.08
2023-04-16T07:35:16.683Z,16.42
2023-04-16T07:37:44.589Z,16.38
2023-04-16T07:40:14.304Z,16.67
2023-04-16T07:42:42.253Z,17.55
2023-04-16T07:45:11.126Z,17.05
2023-04-16T07:47:39.000Z,16.58
2023-04-16T07:50:08.279Z,17.75
2023-04-16T07:52:37.327Z,16.58
2023-04-16T07:55:05.757Z,16.65
2023-04-16T07:57:35.278Z,17.15
2023-04-16T08:00:05.082Z,16.38
2023-04-16T08:02:33.288Z,15.55
2023-04-16T08:05:01.477Z,14.35
2023-04-16T08:07:29.540Z,15.80
2023-04-16T08:09:57.429Z,16.48
2023-04-16T08:12:25.445Z,17.38
2023-04-16T08:14:54.756Z,15.85
2023-04-16T08:17:22.738Z,14.52
2023-04-16T08:19:50.856Z,14.93
2023-04-16T08:22:18.964Z,16.08
2023-04-16T08:24:46.935Z,14.07
2023-04-16T08:27:18.441Z,13.90
2023-04-16T08:29:47.548Z,13.43
2023-04-16T08:32:16.924Z,14.20
2023-04-16T08:34:44.842Z,13.43
2023-04-16T08:37:12.749Z,12.35
2023-04-16T08:39:40.667Z,12.65
2023-04-16T08:42:15.401Z,13.57
2023-04-16T08:44:49.392Z,13.05
2023-04-16T08:47:18.986Z,12.27
2023-04-16T08:49:47.055Z,12.45
2023-04-16T08:52:19.583Z,12.48
2023-04-16T08:54:56.732Z,12.98
2023-04-16T08:57:31.605Z,12.88
2023-04-16T09:00:00.159Z,11.25
2023-04-16T09:02:30.003Z,13.27
2023-04-16T09:05:01.544Z,11.82
2023-04-16T09:07:30.910Z,12.88
2023-04-16T09:10:00.712Z,13.70
2023-04-16T09:12:28.983Z,13.40
2023-04-16T09:14:59.795Z,13.13
2023-04-16T09:17:29.216Z,12.38
2023-04-16T09:19:57.212Z,12.73
2023-04-16T09:22:25.116Z,11.40
2023-04-16T09:24:53.053Z,12.05
2023-04-16T09:27:23.243Z,13.80
2023-04-16T09:29:52.066Z,12.05
2023-04-16T09:32:26.361Z,11.57
2023-04-16T09:35:00.183Z,12.60
2023-04-16T09:40:00.743Z,13.35
2023-04-16T09:42:32.346Z,13.43
2023-04-16T09:45:02.786Z,12.75
2023-04-16T09:47:51.077Z,13.25
2023-04-16T09:50:21.638Z,13.02
2023-04-16T09:52:51.662Z,13.85
2023-04-16T09:55:24.890Z,13.20
2023-04-16T09:58:00.394Z,13.95
2023-04-16T10:00:30.632Z,14.85
2023-04-16T10:03:05.833Z,14.40
2023-04-16T10:05:35.265Z,14.05
2023-04-16T10:08:03.280Z,14.73
2023-04-16T10:10:31.926Z,13.80
2023-04-16T10:12:59.959Z,15.18
2023-04-16T10:15:28.970Z,13.38
2023-04-16T10:17:58.316Z,14.32
2023-04-16T10:20:27.423Z,12.98
2023-04-16T10:22:57.960Z,13.50
2023-04-16T10:25:26.853Z,13.63
2023-04-16T10:27:55.597Z,13.65
2023-04-16T10:32:53.759Z,15.27
2023-04-16T10:35:21.769Z,15.27
2023-04-16T10:37:51.557Z,15.40
2023-04-16T10:40:26.716Z,14.07
2023-04-16T10:42:58.268Z,13.35
2023-04-16T10:45:32.658Z,13.30
2023-04-16T10:48:00.603Z,17.13
2023-04-16T10:50:39.184Z,14.75
2023-04-16T10:53:25.829Z,13.07
2023-04-16T10:56:12.861Z,14.93
2023-04-16T10:58:42.870Z,13.00
2023-04-16T11:01:16.590Z,14.38
2023-04-16T11:03:48.982Z,12.77
2023-04-16T11:06:18.132Z,13.68
2023-04-16T11:08:54.742Z,14.40
2023-04-16T11:11:26.802Z,14.63
2023-04-16T11:13:57.495Z,16.65
2023-04-16T11:16:27.352Z,17.48
2023-04-16T11:18:57.175Z,15.93
2023-04-16T11:21:25.753Z,16.58
2023-04-16T11:23:54.423Z,17.35
2023-04-16T11:26:28.763Z,17.65
2023-04-16T11:28:57.759Z,16.88
2023-04-16T11:31:27.323Z,17.35
2023-04-16T11:33:57.530Z,18.60
2023-04-16T11:36:27.820Z,18.58
2023-04-16T11:39:03.779Z,16.85
2023-04-16T11:41:33.121Z,17.23
2023-04-16T11:44:01.427Z,18.05
2023-04-16T11:46:39.697Z,16.52
2023-04-16T11:49:07.857Z,17.23
2023-04-16T11:51:41.227Z,16.95
2023-04-16T11:54:12.001Z,17.67
2023-04-16T11:56:48.434Z,18.20
2023-04-16T11:59:17.844Z,18.42
2023-04-16T12:01:49.219Z,16.75
2023-04-16T12:04:18.648Z,18.05
2023-04-16T12:07:09.181Z,16.35
2023-04-16T12:09:40.190Z,18.77
2023-04-16T12:12:27.389Z,17.95
2023-04-16T12:14:56.936Z,16.08
2023-04-16T12:17:25.305Z,16.48
2023-04-16T12:19:56.600Z,16.95
2023-04-16T12:22:29.092Z,15.90
2023-04-16T12:24:59.462Z,17.23
2023-04-16T12:27:43.271Z,17.02
2023-04-16T12:30:12.121Z,17.40
2023-04-16T12:32:40.160Z,17.58
2023-04-16T12:35:09.296Z,16.55
2023-04-16T12:37:37.251Z,16.70
2023-04-16T12:40:07.055Z,16.67
2023-04-16T12:42:36.927Z,17.00
2023-04-16T12:45:05.955Z,16.70
2023-04-16T12:47:34.298Z,16.17
2023-04-16T12:50:02.357Z,15.48
2023-04-16T12:52:30.314Z,17.65
2023-04-16T12:54:58.319Z,15.52
2023-04-16T12:57:28.812Z,16.48
2023-04-16T12:59:58.783Z,18.23
2023-04-16T13:02:27.224Z,16.25
2023-04-16T13:04:55.832Z,16.40
2023-04-16T13:07:24.253Z,17.30
2023-04-16T13:09:52.220Z,16.42
2023-04-16T13:12:20.206Z,15.90
2023-04-16T13:14:48.139Z,17.02
2023-04-16T13:17:17.401Z,16.95
2023-04-16T13:19:45.813Z,16.08
2023-04-16T13:22:14.089Z,17.75
2023-04-16T13:24:42.006Z,17.25
2023-04-16T13:27:10.318Z,15.93
2023-04-16T13:29:38.248Z,15.32
2023-04-16T13:32:06.862Z,16.38
2023-04-16T13:34:36.232Z,16.33
2023-04-16T13:37:04.128Z,16.33
2023-04-16T13:39:32.036Z,15.88
2023-04-16T13:42:00.251Z,17.10
2023-04-16T13:44:28.202Z,16.00
2023-04-16T13:46:56.323Z,16.10
2023-04-16T13:49:24.536Z,16.45
2023-04-16T13:51:53.854Z,15.63
2023-04-16T13:54:22.092Z,16.70
2023-04-16T13:56:51.359Z,15.38
2023-04-16T13:59:20.263Z,17.27
2023-04-16T14:01:48.226Z,16.35
2023-04-16T14:04:16.316Z,17.88
2023-04-16T14:06:44.291Z,18.10
2023-04-16T14:09:13.637Z,18.75
2023-04-16T14:11:41.627Z,17.77
2023-04-16T14:14:09.580Z,17.00
2023-04-16T14:16:37.483Z,17.02
2023-04-16T14:19:05.453Z,16.70
2023-04-16T14:21:33.368Z,16.13
2023-04-16T14:24:01.274Z,17.60
2023-04-16T14:26:30.655Z,15.27
2023-04-16T14:28:58.647Z,16.58
2023-04-16T14:31:27.704Z,14.57
2023-04-16T14:33:55.898Z,15.30
2023-04-16T14:36:23.863Z,15.25
2023-04-16T14:38:51.764Z,16.80
2023-04-16T14:41:19.699Z,15.90
2023-04-16T14:43:49.011Z,14.70
2023-04-16T14:46:17.880Z,14.40
2023-04-16T14:48:46.368Z,15.13
2023-04-16T14:51:14.320Z,14.90
2023-04-16T14:53:42.281Z,15.18
2023-04-16T14:56:13.602Z,16.40
2023-04-16T14:58:42.933Z,15.07
2023-04-16T15:01:13.728Z,15.07
2023-04-16T15:03:43.046Z,15.40
2023-04-16T15:06:11.452Z,18.08
2023-04-16T15:08:39.492Z,16.30
2023-04-16T15:11:07.520Z,16.63
2023-04-16T15:13:35.410Z,22.65
2023-04-16T15:16:04.492Z,17.65
2023-04-16T15:18:34.215Z,14.95
2023-04-16T15:21:02.191Z,16.00
2023-04-16T15:23:30.198Z,44.08
2023-04-16T15:25:58.112Z,40.65
2023-04-16T15:28:26.160Z,17.90
2023-04-16T15:30:54.197Z,16.55
2023-04-16T15:33:22.553Z,17.25
2023-04-16T15:35:52.638Z,16.50
2023-04-16T15:38:21.345Z,16.67
2023-04-16T15:40:49.300Z,15.88
2023-04-16T15:43:17.424Z,16.10
2023-04-16T15:45:46.179Z,15.38
2023-04-16T15:48:14.346Z,17.00
2023-04-16T15:50:42.294Z,16.55
2023-04-16T15:53:12.914Z,16.67
2023-04-16T15:55:40.971Z,15.52
2023-04-16T15:58:09.012Z,16.13
2023-04-16T16:00:36.983Z,15.60
2023-04-16T16:03:05.136Z,14.98
2023-04-16T16:05:33.263Z,15.13
2023-04-16T16:08:01.845Z,17.17
2023-04-16T16:10:31.205Z,15.73
2023-04-16T16:13:05.190Z,15.93
2023-04-16T16:15:35.553Z,15.75
2023-04-16T16:18:03.557Z,17.13
2023-04-16T16:20:32.015Z,15.90
2023-04-16T16:22:59.902Z,16.77
2023-04-16T16:25:27.830Z,19.38
2023-04-16T16:27:57.190Z,17.83
2023-04-16T16:30:25.681Z,17.88
2023-04-16T16:32:53.791Z,18.58
2023-04-16T16:35:21.882Z,19.50
2023-04-16T16:37:51.865Z,18.85
2023-04-16T16:40:19.735Z,18.55
2023-04-16T16:42:47.703Z,19.92
2023-04-16T16:45:17.305Z,17.33
2023-04-16T16:47:45.273Z,19.17
2023-04-16T16:50:13.651Z,17.40
2023-04-16T16:52:41.753Z,17.80
2023-04-16T16:55:11.188Z,17.88
2023-04-16T16:57:39.939Z,17.13
2023-04-16T17:00:16.317Z,17.70
2023-04-16T17:02:45.749Z,16.08
2023-04-16T17:05:13.930Z,17.08
2023-04-16T17:07:41.823Z,15.70
2023-04-16T17:10:13.224Z,15.60
2023-04-16T17:12:41.208Z,14.77
2023-04-16T17:15:10.306Z,15.77
2023-04-16T17:17:38.267Z,15.18
2023-04-16T17:20:10.829Z,16.35
2023-04-16T17:22:39.734Z,15.13
2023-04-16T17:25:08.776Z,15.45
2023-04-16T17:27:36.718Z,14.52
2023-04-16T17:30:05.897Z,16.48
2023-04-16T17:32:33.995Z,16.25
2023-04-16T17:35:04.246Z,15.68
2023-04-16T17:37:34.319Z,14.60
2023-04-16T17:40:06.459Z,14.70
2023-04-16T17:42:34.818Z,15.38
2023-04-16T17:45:02.880Z,14.90
2023-04-16T17:47:30.844Z,14.45
2023-04-16T17:49:58.803Z,14.65
2023-04-16T17:52:27.356Z,14.95
2023-04-16T17:55:00.361Z,14.10
2023-04-16T17:57:28.342Z,15.80
2023-04-16T17:59:56.384Z,15.48
2023-04-16T18:02:24.578Z,15.50
2023-04-16T18:04:52.750Z,16.73
2023-04-16T18:07:20.790Z,17.45
2023-04-16T18:09:48.760Z,15.85
2023-04-16T18:12:18.032Z,17.27
2023-04-16T18:14:46.232Z,16.30
2023-04-16T18:17:14.154Z,15.10
2023-04-16T18:19:43.830Z,16.00
2023-04-16T18:22:13.327Z,15.80
2023-04-16T18:24:41.318Z,15.00
2023-04-16T18:27:09.367Z,15.50
2023-04-16T18:29:40.197Z,15.73
2023-04-16T18:32:11.729Z,16.45
2023-04-16T18:34:40.298Z,15.68
2023-04-16T18:37:08.227Z,15.00
2023-04-16T18:39:36.798Z,14.32
2023-04-16T18:42:05.229Z,14.70
2023-04-16T18:44:33.204Z,15.05
2023-04-16T18:47:02.585Z,14.90
2023-04-16T18:49:30.535Z,14.57
2023-04-16T18:51:58.420Z,13.32
2023-04-16T18:54:26.319Z,15.55
2023-04-16T18:56:54.221Z,16.30
2023-04-16T18:59:22.399Z,16.00
2023-04-16T19:01:50.828Z,16.65
2023-04-16T19:04:20.263Z,16.75
2023-04-16T19:06:48.563Z,20.52
2023-04-16T19:09:17.044Z,21.63
2023-04-16T19:11:45.183Z,22.02
2023-04-16T19:14:13.080Z,18.20
2023-04-16T19:16:41.148Z,21.65
2023-04-16T19:19:09.301Z,30.20
2023-04-16T19:21:38.723Z,47.38
2023-04-16T19:24:07.205Z,41.17
2023-04-16T19:26:35.162Z,17.60
2023-04-16T19:29:03.587Z,16.77
2023-04-16T19:31:31.532Z,16.20
2023-04-16T19:33:59.468Z,15.30
2023-04-16T19:36:27.692Z,16.33
2023-04-16T19:38:57.019Z,15.45
2023-04-16T19:41:25.013Z,15.38
2023-04-16T19:43:52.859Z,16.20
2023-04-16T19:46:20.832Z,15.90
2023-04-16T19:48:48.812Z,15.82
2023-04-16T19:51:16.696Z,15.20
2023-04-16T19:53:44.613Z,16.73
2023-04-16T19:56:13.936Z,16.83
2023-04-16T19:58:41.845Z,16.55
2023-04-16T20:01:10.555Z,15.70
2023-04-16T20:03:38.728Z,16.38
2023-04-16T20:06:07.916Z,16.58
2023-04-16T20:08:35.960Z,14.95
2023-04-16T20:11:03.869Z,17.38
2023-04-16T20:13:33.282Z,15.57
2023-04-16T20:16:01.607Z,16.38
2023-04-16T20:18:29.529Z,18.20
2023-04-16T20:20:57.484Z,21.88
2023-04-16T20:23:25.518Z,50.13
2023-04-16T20:25:53.431Z,57.38
2023-04-16T20:28:21.786Z,36.92
2023-04-16T20:30:51.340Z,35.88
2023-04-16T20:33:19.288Z,26.98
2023-04-16T20:35:47.587Z,23.77
2023-04-16T20:38:15.520Z,37.10
2023-04-16T20:40:44.730Z,26.17
2023-04-16T20:43:14.402Z,25.48
2023-04-16T20:46:06.212Z,26.02
2023-04-16T20:48:48.970Z,24.98
2023-04-16T20:51:17.438Z,26.33
2023-04-16T20:53:45.783Z,24.70
2023-04-16T20:56:14.978Z,25.17
2023-04-16T20:58:43.821Z,26.27
2023-04-16T21:01:13.228Z,25.67
2023-04-16T21:03:41.408Z,23.92
2023-04-16T21:06:09.519Z,24.50
2023-04-16T21:08:37.425Z,22.77
2023-04-16T21:11:05.522Z,23.13
2023-04-16T21:13:33.476Z,23.50
2023-04-16T21:16:01.384Z,21.17
2023-04-16T21:18:30.913Z,21.63
2023-04-16T21:20:59.069Z,22.58
2023-04-16T21:23:26.987Z,22.27
2023-04-16T21:25:56.726Z,22.13
2023-04-16T21:28:24.734Z,21.25
2023-04-16T21:30:52.852Z,23.45
2023-04-16T21:33:20.907Z,23.63
2023-04-16T21:35:53.725Z,23.10
2023-04-16T21:38:22.204Z,23.45
2023-04-16T21:40:53.934Z,23.65
2023-04-16T21:43:21.942Z,23.10
2023-04-16T21:45:49.892Z,22.77
2023-04-16T21:48:17.782Z,23.73
2023-04-16T21:50:45.700Z,25.88
2023-04-16T21:53:15.021Z,23.38
2023-04-16T21:55:43.847Z,21.75
2023-04-16T21:58:11.909Z,21.90
2023-04-16T22:00:39.820Z,25.23
2023-04-16T22:03:09.173Z,24.95
2023-04-16T22:05:37.316Z,25.67
2023-04-16T22:08:20.986Z,27.67
2023-04-16T22:10:56.942Z,28.20
2023-04-16T22:13:25.948Z,28.52
2023-04-16T22:15:54.181Z,28.95
2023-04-16T22:18:22.152Z,28.00
2023-04-16T22:20:50.978Z,31.23
2023-04-16T22:23:18.929Z,28.48
2023-04-16T22:25:46.785Z,28.73
2023-04-16T22:28:16.128Z,29.02
2023-04-16T22:30:44.060Z,27.88
2023-04-16T22:33:12.164Z,27.83
2023-04-16T22:35:40.105Z,29.10
2023-04-16T22:38:08.170Z,28.50
2023-04-16T22:40:36.065Z,25.92
2023-04-16T22:43:04.013Z,26.55
2023-04-16T22:45:33.294Z,25.73
2023-04-16T22:48:01.233Z,25.23
2023-04-16T22:50:31.481Z,27.73
2023-04-16T22:52:59.559Z,29.48
2023-04-16T22:55:27.613Z,29.45
2023-04-16T22:57:55.705Z,29.45
2023-04-16T23:00:24.931Z,28.58
2023-04-16T23:02:54.412Z,28.33
2023-04-16T23:05:22.573Z,26.77
2023-04-16T23:07:50.475Z,28.10
2023-04-16T23:10:18.572Z,28.90
2023-04-16T23:12:46.558Z,30.45
2023-04-16T23:15:14.577Z,31.10
2023-04-16T23:17:42.574Z,29.70
2023-04-16T23:20:13.382Z,30.58
2023-04-16T23:22:41.719Z,32.25
2023-04-16T23:25:10.626Z,35.67
2023-04-16T23:27:38.744Z,32.28
2023-04-16T23:30:08.357Z,33.42
2023-04-16T23:32:36.297Z,35.47
2023-04-16T23:35:04.399Z,34.20
2023-04-16T23:37:33.753Z,32.97
2023-04-16T23:40:01.900Z,35.05
2023-04-16T23:42:29.842Z,35.63
2023-04-16T23:44:57.810Z,34.53
2023-04-16T23:47:25.732Z,37.65
2023-04-16T23:49:53.656Z,35.92
2023-04-16T23:52:21.724Z,36.05
2023-04-16T23:54:51.036Z,39.65
2023-04-16T23:57:18.979Z,39.85
2023-04-16T23:59:46.942Z,40.75
